createdAt,value
2023-02-22T00:02:46.628Z,101451.28
2023-02-22T00:07:51.457Z,101452.19
2023-02-22T00:12:56.317Z,101452.19
2023-02-22T00:17:59.340Z,101445.25
2023-02-22T00:23:07.116Z,101438.31
2023-02-22T00:28:10.004Z,101434.84
2023-02-22T00:33:13.573Z,101435.72
2023-02-22T00:38:20.176Z,101428.78
2023-02-22T00:43:22.997Z,101421.00
2023-02-22T00:48:25.742Z,101421.84
2023-02-22T00:53:29.951Z,101408.84
2023-02-22T00:58:32.841Z,101413.19
2023-02-22T01:03:35.604Z,101408.84
2023-02-22T01:08:39.931Z,101399.34
2023-02-22T01:13:45.241Z,101395.03
2023-02-22T01:18:48.020Z,101395.03
2023-02-22T01:23:52.993Z,101389.88
2023-02-22T01:28:55.836Z,101387.28
2023-02-22T01:33:58.625Z,101389.00
2023-02-22T01:39:02.783Z,101373.41
2023-02-22T01:44:19.606Z,101384.66
2023-02-22T01:49:22.423Z,101370.84
2023-02-22T01:54:29.245Z,101379.50
2023-02-22T01:59:33.733Z,101380.38
2023-02-22T02:04:37.136Z,101388.16
2023-02-22T02:09:49.890Z,101371.72
2023-02-22T02:14:54.763Z,101355.28
2023-02-22T02:20:08.244Z,101344.91
2023-02-22T02:25:26.529Z,101349.25
2023-02-22T02:30:46.869Z,101329.34
2023-02-22T02:35:56.342Z,101329.34
2023-02-22T02:41:06.801Z,101325.03
2023-02-22T02:46:13.543Z,101325.00
2023-02-22T02:51:19.533Z,101315.47
2023-02-22T02:56:23.433Z,101307.72
2023-02-22T03:01:42.549Z,101315.50
2023-02-22T03:06:55.764Z,101287.84
2023-02-22T03:12:07.981Z,101294.75
2023-02-22T03:17:19.101Z,101292.16
2023-02-22T03:22:27.660Z,101285.22
2023-02-22T03:27:35.886Z,101281.75
2023-02-22T03:32:42.541Z,101273.13
2023-02-22T03:37:50.290Z,101280.06
2023-02-22T03:42:56.888Z,101271.41
2023-02-22T03:48:06.352Z,101261.88
2023-02-22T03:53:11.420Z,101264.47
2023-02-22T03:58:16.925Z,101262.72
2023-02-22T04:03:20.296Z,101255.81
2023-02-22T04:08:25.051Z,101262.75
2023-02-22T04:13:28.499Z,101254.94
2023-02-22T04:18:31.970Z,101253.22
2023-02-22T04:23:37.482Z,101255.78
2023-02-22T04:28:40.965Z,101238.50
2023-02-22T04:33:48.883Z,101236.75
2023-02-22T04:38:56.888Z,101237.63
2023-02-22T04:43:59.793Z,101234.13
2023-02-22T04:49:03.578Z,101228.94
2023-02-22T04:54:10.916Z,101222.91
2023-02-22T04:59:17.730Z,101209.03
2023-02-22T05:04:22.951Z,101202.13
2023-02-22T05:09:27.143Z,101193.50
2023-02-22T05:14:29.953Z,101182.22
2023-02-22T05:19:32.773Z,101175.31
2023-02-22T05:24:37.154Z,101176.16
2023-02-22T05:29:40.010Z,101166.66
2023-02-22T05:34:42.798Z,101158.91
2023-02-22T05:39:47.506Z,101148.56
2023-02-22T05:44:50.361Z,101146.00
2023-02-22T05:49:53.204Z,101135.63
2023-02-22T05:54:57.425Z,101133.94
2023-02-22T06:00:00.263Z,101120.09
2023-02-22T06:05:03.216Z,101111.44
2023-02-22T06:10:07.838Z,101115.75
2023-02-22T06:15:10.699Z,101120.91
2023-02-22T06:20:16.253Z,101117.53
2023-02-22T06:25:22.087Z,101118.38
2023-02-22T06:30:26.532Z,101118.38
2023-02-22T06:35:29.430Z,101113.22
2023-02-22T06:40:33.689Z,101119.22
2023-02-22T06:45:36.437Z,101137.38
2023-02-22T06:50:39.359Z,101128.75
2023-02-22T06:55:43.474Z,101128.75
2023-02-22T07:00:46.272Z,101114.94
2023-02-22T07:05:49.000Z,101121.84
2023-02-22T07:10:53.793Z,101121.84
2023-02-22T07:15:56.707Z,101125.31
2023-02-22T07:20:59.724Z,101121.88
2023-02-22T07:26:05.593Z,101107.16
2023-02-22T07:31:08.396Z,101106.34
2023-02-22T07:36:13.681Z,101106.31
2023-02-22T07:41:18.167Z,101086.47
2023-02-22T07:46:21.345Z,101090.78
2023-02-22T07:51:24.359Z,101089.91
2023-02-22T07:56:28.684Z,101108.06
2023-02-22T08:01:31.967Z,101118.38
2023-02-22T08:06:34.832Z,101116.69
2023-02-22T08:11:39.164Z,101108.91
2023-02-22T08:16:42.101Z,101089.03
2023-02-22T08:21:44.909Z,101095.09
2023-02-22T08:26:49.043Z,101102.84
2023-02-22T08:31:54.064Z,101108.91
2023-02-22T08:36:57.184Z,101099.41
2023-02-22T08:42:01.356Z,101103.72
2023-02-22T08:47:04.413Z,101106.31
2023-02-22T08:52:07.230Z,101108.88
2023-02-22T08:57:11.699Z,101096.78
2023-02-22T09:02:16.713Z,101089.00
2023-02-22T09:07:19.686Z,101108.03
2023-02-22T09:12:23.880Z,101095.94
2023-02-22T09:17:26.740Z,101094.19
2023-02-22T09:22:29.502Z,101092.41
2023-02-22T09:27:33.621Z,101082.91
2023-02-22T09:32:37.777Z,101086.34
2023-02-22T09:37:44.578Z,101064.69
2023-02-22T09:42:56.499Z,101072.50
2023-02-22T09:48:15.259Z,101082.88
2023-02-22T09:53:29.856Z,101064.66
2023-02-22T09:58:35.689Z,101056.81
2023-02-22T10:03:47.901Z,101035.16
2023-02-22T10:08:53.887Z,101036.78
2023-02-22T10:14:03.837Z,101033.13
2023-02-22T10:19:18.226Z,101023.50
2023-02-22T10:24:33.778Z,101018.09
2023-02-22T10:29:41.750Z,101040.53
2023-02-22T10:34:48.486Z,101070.75
2023-02-22T10:39:52.893Z,101064.53
2023-02-22T10:44:57.252Z,101078.34
2023-02-22T10:50:01.448Z,101069.59
2023-02-22T10:55:15.226Z,101072.66
2023-02-22T11:00:26.281Z,101049.97
2023-02-22T11:05:31.861Z,101037.00
2023-02-22T11:10:38.729Z,101039.66
2023-02-22T11:15:44.221Z,101034.41
2023-02-22T11:20:47.067Z,101061.31
2023-02-22T11:25:51.861Z,101063.88
2023-02-22T11:30:56.838Z,101070.84
2023-02-22T11:36:02.391Z,101069.94
2023-02-22T11:41:15.610Z,101057.03
2023-02-22T11:46:21.804Z,101054.31
2023-02-22T11:51:36.473Z,101046.38
2023-02-22T11:56:43.643Z,101048.59
2023-02-22T12:01:52.420Z,101035.44
2023-02-22T12:07:05.826Z,101030.72
2023-02-22T12:12:15.991Z,101019.50
2023-02-22T12:17:31.972Z,101004.78
2023-02-22T12:22:37.970Z,100986.41
2023-02-22T12:28:10.051Z,100976.56
2023-02-22T12:33:24.260Z,100959.06
2023-02-22T12:38:33.833Z,100965.09
2023-02-22T12:43:42.002Z,100976.44
2023-02-22T12:48:51.986Z,101001.41
2023-02-22T12:54:01.437Z,100984.84
2023-02-22T12:59:09.149Z,100997.81
2023-02-22T13:04:20.938Z,100988.16
2023-02-22T13:09:38.613Z,100990.81
2023-02-22T13:14:50.734Z,100992.53
2023-02-22T13:20:00.245Z,100984.50
2023-02-22T13:25:09.438Z,100975.78
2023-02-22T13:30:18.454Z,100984.72
2023-02-22T13:35:37.484Z,100979.41
2023-02-22T13:40:50.757Z,100993.31
2023-02-22T13:46:07.583Z,100978.44
2023-02-22T13:51:15.921Z,100982.78
2023-02-22T13:56:20.134Z,100981.09
2023-02-22T14:01:45.694Z,100988.78
2023-02-22T14:06:51.258Z,100974.91
2023-02-22T14:11:57.080Z,100968.75
2023-02-22T14:17:25.970Z,100976.56
2023-02-22T14:22:31.297Z,100974.94
2023-02-22T14:27:40.997Z,100981.03
2023-02-22T14:32:44.081Z,100998.25
2023-02-22T14:37:50.597Z,100993.88
2023-02-22T14:43:01.951Z,101000.09
2023-02-22T14:48:13.648Z,100996.72
2023-02-22T14:53:25.387Z,100984.44
2023-02-22T14:58:33.341Z,100994.16
2023-02-22T15:03:38.224Z,100989.72
2023-02-22T15:08:42.694Z,100993.09
2023-02-22T15:13:50.920Z,100983.50
2023-02-22T15:18:55.038Z,100998.44
2023-02-22T15:24:00.758Z,100996.75
2023-02-22T15:29:09.231Z,100997.75
2023-02-22T15:34:24.441Z,101007.50
2023-02-22T15:39:33.158Z,101013.72
2023-02-22T15:44:38.693Z,101025.13
2023-02-22T15:49:41.525Z,101029.69
2023-02-22T15:54:48.804Z,101031.50
2023-02-22T15:59:53.706Z,101041.06
2023-02-22T16:04:59.939Z,101034.22
2023-02-22T16:10:09.199Z,101035.19
2023-02-22T16:15:17.491Z,101042.16
2023-02-22T16:20:36.225Z,101044.78
2023-02-22T16:25:40.482Z,101051.88
2023-02-22T16:30:43.463Z,101053.72
2023-02-22T16:36:09.415Z,101057.44
2023-02-22T16:41:16.155Z,101054.09
2023-02-22T16:46:21.470Z,101051.56
2023-02-22T16:51:27.146Z,101057.72
2023-02-22T16:56:32.421Z,101060.34
2023-02-22T17:01:35.663Z,101061.31
2023-02-22T17:06:38.752Z,101056.16
2023-02-22T17:11:43.925Z,101045.75
2023-02-22T17:16:47.643Z,101054.53
2023-02-22T17:21:51.407Z,101050.31
2023-02-22T17:26:57.419Z,101049.53
2023-02-22T17:32:00.422Z,101046.94
2023-02-22T17:37:04.803Z,101046.94
2023-02-22T17:42:09.176Z,101046.94
2023-02-22T17:47:12.021Z,101046.94
2023-02-22T17:52:15.992Z,101055.63
2023-02-22T17:57:20.248Z,101054.75
2023-02-22T18:02:23.160Z,101051.25
2023-02-22T18:07:26.356Z,101049.53
2023-02-22T18:12:31.149Z,101053.03
2023-02-22T18:17:34.024Z,101053.91
2023-02-22T18:22:36.858Z,101060.88
2023-02-22T18:27:43.178Z,101056.53
2023-02-22T18:32:46.399Z,101047.06
2023-02-22T18:37:49.442Z,101034.13
2023-02-22T18:42:53.683Z,101041.06
2023-02-22T18:47:56.568Z,101036.72
2023-02-22T18:52:59.473Z,101034.13
2023-02-22T18:58:04.805Z,101042.75
2023-02-22T19:03:07.750Z,101029.75
2023-02-22T19:08:11.378Z,101050.56
2023-02-22T19:13:16.664Z,101047.06
2023-02-22T19:18:20.615Z,101047.00
2023-02-22T19:23:23.681Z,101041.78
2023-02-22T19:28:33.983Z,101044.34
2023-02-22T19:33:37.021Z,101044.31
2023-02-22T19:38:40.448Z,101043.47
2023-02-22T19:43:44.647Z,101041.75
2023-02-22T19:48:47.537Z,101050.38
2023-02-22T19:53:50.496Z,101033.06
2023-02-22T19:58:56.315Z,101030.44
2023-02-22T20:04:03.702Z,101037.38
2023-02-22T20:09:07.943Z,101038.22
2023-02-22T20:14:17.766Z,101046.03
2023-02-22T20:19:22.463Z,101048.59
2023-02-22T20:24:27.617Z,101041.66
2023-02-22T20:29:31.821Z,101045.16
2023-02-22T20:34:36.202Z,101056.38
2023-02-22T20:39:39.109Z,101062.50
2023-02-22T20:44:44.973Z,101083.34
2023-02-22T20:49:47.835Z,101091.97
2023-02-22T20:54:50.601Z,101097.22
2023-02-22T20:59:54.850Z,101109.41
2023-02-22T21:04:58.111Z,101118.94
2023-02-22T21:10:00.931Z,101117.19
2023-02-22T21:15:07.065Z,101130.19
2023-02-22T21:20:12.140Z,101133.69
2023-02-22T21:25:16.574Z,101140.63
2023-02-22T21:30:20.890Z,101133.72
2023-02-22T21:35:24.273Z,101143.28
2023-02-22T21:40:27.511Z,101136.34
2023-02-22T21:45:31.812Z,101139.84
2023-02-22T21:50:37.717Z,101140.78
2023-02-22T21:55:40.896Z,101137.31
2023-02-22T22:00:45.480Z,101137.28
2023-02-22T22:05:49.062Z,101135.56
2023-02-22T22:10:55.270Z,101126.91
2023-02-22T22:16:05.857Z,101126.06
2023-02-22T22:21:13.918Z,101122.59
2023-02-22T22:26:19.976Z,101119.13
2023-02-22T22:31:25.864Z,101119.16
2023-02-22T22:36:28.990Z,101114.84
2023-02-22T22:41:33.827Z,101097.53
2023-02-22T22:46:40.958Z,101079.38
2023-02-22T22:51:47.367Z,101070.69
2023-02-22T22:56:50.300Z,101067.22
2023-02-22T23:01:56.642Z,101057.69
2023-02-22T23:07:00.553Z,101063.72
2023-02-22T23:12:09.450Z,101051.59
2023-02-22T23:17:15.332Z,101049.88
2023-02-22T23:22:18.141Z,101049.00
2023-02-22T23:27:20.872Z,101050.69
2023-02-22T23:32:26.748Z,101042.09
2023-02-22T23:37:35.356Z,101056.84
2023-02-22T23:42:38.765Z,101055.19
2023-02-22T23:47:43.809Z,101063.13
2023-02-22T23:52:46.713Z,101060.63
2023-02-22T23:57:49.589Z,101075.41
